Time;durP1;ratioP1;P1;durP2;ratioP2;P2;SDS_P1;SDS_P2;PMS_P1;PMS_P2;Temp;Humidity;BMP_temperature;BMP_pressure;BME280_temperature;BME280_humidity;BME280_pressure;Samples;Min_cycle;Max_cycle;Signal;HPM_P1;HPM_P2
2022/03/31 00:01:24;;;;;;;1999.90;999.90;;;;;;;1.42;46.27;99915.84;4917423;28;98960;-77
2022/03/31 00:03:52;;;;;;;1999.90;999.90;;;;;;;1.24;46.74;99917.66;4918290;28;99693;-76
2022/03/31 00:06:19;;;;;;;1999.90;999.90;;;;;;;1.11;46.10;99912.69;4918566;28;97771;-75
2022/03/31 00:08:48;;;;;;;1999.90;999.90;;;;;;;1.01;46.74;99914.00;4919216;28;97358;-75
2022/03/31 00:11:17;;;;;;;1999.90;999.90;;;;;;;1.44;46.15;99915.91;4914983;28;99203;-75
2022/03/31 00:13:45;;;;;;;1999.90;999.90;;;;;;;1.64;46.12;99917.66;4899973;28;100511;-75
2022/03/31 00:16:13;;;;;;;1999.90;999.90;;;;;;;1.18;47.47;99922.59;4916437;28;96701;-76
2022/03/31 00:18:41;;;;;;;1999.90;999.90;;;;;;;1.01;47.37;99928.84;4919648;28;97840;-75
2022/03/31 00:21:09;;;;;;;1999.90;999.90;;;;;;;1.42;47.25;99921.06;4916441;28;97684;-76
2022/03/31 00:23:37;;;;;;;1999.90;999.90;;;;;;;1.58;47.39;99910.41;4915023;28;98943;-74
2022/03/31 00:26:06;;;;;;;1999.90;999.90;;;;;;;1.10;47.94;99917.03;4917304;28;98054;-75
2022/03/31 00:28:34;;;;;;;1999.90;999.90;;;;;;;1.45;47.35;99915.94;4914994;28;97359;-76
2022/03/31 00:31:02;;;;;;;1999.90;999.90;;;;;;;1.57;46.98;99910.34;4914031;28;98290;-75
2022/03/31 00:33:29;;;;;;;1999.90;999.90;;;;;;;1.08;48.54;99917.81;4915905;28;99314;-75
2022/03/31 00:35:57;;;;;;;1999.90;999.90;;;;;;;0.90;48.31;99919.59;4919972;28;96900;-77
2022/03/31 00:38:25;;;;;;;1999.90;999.90;;;;;;;0.78;48.51;99924.25;4915801;28;97757;-75
2022/03/31 00:40:53;;;;;;;1999.90;999.90;;;;;;;0.68;48.23;99919.44;4914728;28;97605;-75
2022/03/31 00:43:22;;;;;;;1999.90;999.90;;;;;;;0.61;48.41;99919.97;4911700;28;99679;-75
2022/03/31 00:45:56;;;;;;;1999.90;999.90;;;;;;;0.53;48.51;99918.69;4918547;28;97251;-75
2022/03/31 00:48:24;;;;;;;1999.90;999.90;;;;;;;0.47;48.50;99926.25;4915961;28;98121;-74
2022/03/31 00:50:52;;;;;;;1999.90;999.90;;;;;;;0.40;48.30;99918.94;4919042;28;98126;-76
2022/03/31 00:53:21;;;;;;;1999.90;999.90;;;;;;;0.34;48.41;99918.66;4918650;28;97531;-75
2022/03/31 00:55:56;;;;;;;1999.90;999.90;;;;;;;0.29;48.46;99930.59;4919276;28;97106;-75
2022/03/31 00:58:25;;;;;;;1999.90;999.90;;;;;;;0.23;48.37;99921.63;4911476;28;98924;-76
2022/03/31 01:00:53;;;;;;;1999.90;999.90;;;;;;;0.19;48.36;99922.28;4921901;28;98983;-75
2022/03/31 01:03:21;;;;;;;1999.90;999.90;;;;;;;0.15;48.33;99917.75;4915167;28;98313;-75
2022/03/31 01:05:49;;;;;;;1999.90;999.90;;;;;;;0.11;48.52;99914.91;4916635;28;97406;-74
2022/03/31 01:08:17;;;;;;;1999.90;999.90;;;;;;;0.07;48.43;99905.09;4915739;28;97514;-74
2022/03/31 01:10:46;;;;;;;1999.90;999.90;;;;;;;0.03;48.38;99905.78;4916494;28;99684;-75
2022/03/31 01:13:14;;;;;;;1999.90;999.90;;;;;;;-0.02;48.46;99904.66;4915607;28;97574;-77
2022/03/31 01:15:43;;;;;;;1999.90;999.90;;;;;;;-0.06;48.58;99906.22;4915485;28;97485;-77
2022/03/31 01:18:11;;;;;;;1999.90;999.90;;;;;;;-0.08;48.49;99905.25;4917962;28;98101;-76
2022/03/31 01:20:40;;;;;;;1999.90;999.90;;;;;;;-0.10;48.58;99904.28;4910962;28;97593;-75
2022/03/31 01:23:12;;;;;;;1999.90;999.90;;;;;;;-0.14;48.50;99906.69;4916170;28;101070;-76
2022/03/31 01:25:39;;;;;;;1999.90;999.90;;;;;;;-0.16;48.64;99904.00;4916722;28;97377;-74
2022/03/31 01:28:07;;;;;;;1999.90;999.90;;;;;;;-0.17;48.76;99903.88;4914909;28;97937;-75
2022/03/31 01:30:36;;;;;;;1999.90;999.90;;;;;;;0.31;48.52;99902.81;4913684;28;98852;-76
2022/03/31 01:33:03;;;;;;;1999.90;999.90;;;;;;;0.56;49.00;99903.16;4914637;28;98482;-75
2022/03/31 01:35:31;;;;;;;1999.90;999.90;;;;;;;0.18;49.17;99902.19;4918276;28;97306;-76
2022/03/31 01:37:59;;;;;;;1999.90;999.90;;;;;;;0.03;49.35;99901.44;4905888;28;97872;-75
2022/03/31 01:40:28;;;;;;;1999.90;999.90;;;;;;;-0.03;49.26;99889.81;4914494;28;97995;-75
2022/03/31 01:42:56;;;;;;;1999.90;999.90;;;;;;;-0.09;49.15;99895.63;4913635;28;99359;-75
2022/03/31 01:45:24;;;;;;;1999.90;999.90;;;;;;;0.37;48.57;99887.41;4914819;28;97255;-76
2022/03/31 01:47:52;;;;;;;1999.90;999.90;;;;;;;0.60;48.63;99887.66;4916784;28;98226;-75
2022/03/31 01:50:19;;;;;;;1999.90;999.90;;;;;;;0.18;49.44;99896.06;4915201;28;98773;-76
2022/03/31 01:52:47;;;;;;;1999.90;999.90;;;;;;;0.02;49.32;99891.81;4915343;28;97126;-76
2022/03/31 01:55:15;;;;;;;1999.90;999.90;;;;;;;-0.07;49.30;99888.75;4918182;28;96975;-74
2022/03/31 01:57:44;;;;;;;1999.90;999.90;;;;;;;-0.15;49.60;99884.88;4921566;28;97829;-76
2022/03/31 02:00:13;;;;;;;1999.90;999.90;;;;;;;-0.21;49.64;99884.56;4931908;28;97665;-76
2022/03/31 02:02:41;;;;;;;1999.90;999.90;;;;;;;-0.26;49.47;99880.81;4917688;28;97749;-75
2022/03/31 02:05:10;;;;;;;1999.90;999.90;;;;;;;-0.30;49.48;99889.31;4915506;28;97312;-75
2022/03/31 02:07:38;;;;;;;1999.90;999.90;;;;;;;-0.34;49.63;99887.41;4919226;28;97919;-75
2022/03/31 02:10:10;;;;;;;1999.90;999.90;;;;;;;-0.39;49.41;99880.16;4921967;28;98700;-74
2022/03/31 02:12:37;;;;;;;1999.90;999.90;;;;;;;-0.41;49.50;99880.06;4921445;28;99573;-75
2022/03/31 02:15:09;;;;;;;1999.90;999.90;;;;;;;-0.42;49.24;99879.97;4921757;28;96798;-75
2022/03/31 02:17:38;;;;;;;1999.90;999.90;;;;;;;-0.43;49.29;99878.19;4920779;28;97663;-74
2022/03/31 02:20:07;;;;;;;1999.90;999.90;;;;;;;-0.45;49.15;99877.22;4916605;28;98025;-73
2022/03/31 02:22:35;;;;;;;1999.90;999.90;;;;;;;-0.48;49.44;99879.69;4917421;28;98568;-75
2022/03/31 02:25:03;;;;;;;1999.90;999.90;;;;;;;-0.51;49.14;99879.53;4904444;28;97086;-75
2022/03/31 02:27:31;;;;;;;1999.90;999.90;;;;;;;-0.52;49.32;99883.84;4919984;28;97890;-75
2022/03/31 02:29:59;;;;;;;1999.90;999.90;;;;;;;-0.56;49.29;99875.78;4923375;28;97705;-75
2022/03/31 02:32:28;;;;;;;1999.90;999.90;;;;;;;-0.09;48.44;99879.94;4915097;28;99445;-77
2022/03/31 02:34:57;;;;;;;1999.90;999.90;;;;;;;0.17;48.69;99879.47;4918291;28;97865;-75
2022/03/31 02:37:24;;;;;;;1999.90;999.90;;;;;;;0.34;48.46;99879.44;4916096;28;97038;-75
2022/03/31 02:39:52;;;;;;;1999.90;999.90;;;;;;;-0.12;49.47;99879.78;4921566;28;98757;-74
2022/03/31 02:42:20;;;;;;;1999.90;999.90;;;;;;;0.28;48.56;99879.13;4917995;28;98870;-75
2022/03/31 02:44:48;;;;;;;1999.90;999.90;;;;;;;0.44;48.43;99879.00;4917161;28;97484;-74
2022/03/31 02:47:16;;;;;;;1999.90;999.90;;;;;;;-0.02;49.09;99881.13;4921104;28;100288;-73
2022/03/31 02:49:45;;;;;;;1999.90;999.90;;;;;;;-0.18;49.47;99879.50;4917587;28;100358;-73
2022/03/31 02:52:13;;;;;;;1999.90;999.90;;;;;;;0.23;48.86;99886.69;4917849;28;97481;-75
2022/03/31 02:57:31;;;;;;;1999.90;999.90;;;;;;;-0.31;49.55;99871.88;4905593;28;97271;-76
2022/03/31 02:59:59;;;;;;;1999.90;999.90;;;;;;;0.14;48.91;99867.97;4915993;28;98109;-75
2022/03/31 03:02:27;;;;;;;1999.90;999.90;;;;;;;0.34;48.59;99876.81;4918836;28;98183;-73
2022/03/31 03:04:56;;;;;;;1999.90;999.90;;;;;;;-0.10;49.08;99872.03;4917142;28;97788;-75
2022/03/31 03:07:23;;;;;;;1999.90;999.90;;;;;;;-0.27;49.42;99873.81;4917041;28;97778;-76
2022/03/31 03:09:51;;;;;;;1999.90;999.90;;;;;;;-0.37;49.83;99875.88;4918838;28;100777;-75
2022/03/31 03:12:19;;;;;;;1999.90;999.90;;;;;;;0.06;48.69;99875.44;4913300;28;98846;-76
2022/03/31 03:14:47;;;;;;;1999.90;999.90;;;;;;;-0.30;49.24;99873.63;4919686;28;97158;-75
2022/03/31 03:17:14;;;;;;;1999.90;999.90;;;;;;;0.10;48.30;99880.00;4921515;28;97252;-76
2022/03/31 03:19:42;;;;;;;1999.90;999.90;;;;;;;-0.29;49.27;99872.84;4919402;28;98688;-75
2022/03/31 03:22:11;;;;;;;1999.90;999.90;;;;;;;-0.42;49.65;99879.97;4916451;28;100454;-75
2022/03/31 03:24:39;;;;;;;1999.90;999.90;;;;;;;-0.50;49.62;99873.50;4918321;28;97783;-75
2022/03/31 03:27:07;;;;;;;1999.90;999.90;;;;;;;-0.58;49.37;99875.72;4915663;28;97270;-75
2022/03/31 03:29:35;;;;;;;1999.90;999.90;;;;;;;-0.15;48.49;99869.19;4917789;28;99374;-76
2022/03/31 03:32:03;;;;;;;1999.90;999.90;;;;;;;-0.46;48.96;99872.78;4917872;28;98070;-75
2022/03/31 03:34:30;;;;;;;1999.90;999.90;;;;;;;-0.59;49.40;99876.50;4915430;28;97307;-74
2022/03/31 03:36:58;;;;;;;1999.90;999.90;;;;;;;-0.66;49.42;99879.63;4919638;28;97341;-75
2022/03/31 03:39:27;;;;;;;1999.90;999.90;;;;;;;-0.23;48.09;99869.63;4917048;28;100815;-76
2022/03/31 03:41:55;;;;;;;1999.90;999.90;;;;;;;-0.55;48.75;99882.78;4920147;28;98124;-76
2022/03/31 03:44:23;;;;;;;1999.90;999.90;;;;;;;-0.69;49.18;99876.88;4915919;28;97793;-76
2022/03/31 03:46:51;;;;;;;1999.90;999.90;;;;;;;-0.78;49.27;99879.03;4918414;28;98085;-73
2022/03/31 03:49:19;;;;;;;1999.90;999.90;;;;;;;-0.85;48.95;99880.41;4916386;28;98059;-73
2022/03/31 03:51:47;;;;;;;1999.90;999.90;;;;;;;-0.91;48.85;99873.97;4917932;28;99575;-76
2022/03/31 03:54:15;;;;;;;1999.90;999.90;;;;;;;-0.45;47.82;99870.28;4917462;28;97332;-75
2022/03/31 03:56:44;;;;;;;1999.90;999.90;;;;;;;-0.77;48.50;99870.34;4921948;28;97651;-75
2022/03/31 03:59:12;;;;;;;1999.90;999.90;;;;;;;-0.87;48.90;99868.97;4921107;28;97733;-76
2022/03/31 04:01:40;;;;;;;1999.90;999.90;;;;;;;-0.93;48.95;99873.00;4916013;28;97981;-75
2022/03/31 04:04:08;;;;;;;1999.90;999.90;;;;;;;-1.01;48.53;99877.81;4914854;28;97785;-74
2022/03/31 04:06:35;;;;;;;1999.90;999.90;;;;;;;-1.07;48.55;99876.59;4914833;28;97374;-76
2022/03/31 04:09:03;;;;;;;1999.90;999.90;;;;;;;-1.10;48.59;99879.94;4920876;28;100187;-75
2022/03/31 04:11:31;;;;;;;1999.90;999.90;;;;;;;-1.14;48.87;99874.50;4916596;28;98772;-73
2022/03/31 04:14:00;;;;;;;1999.90;999.90;;;;;;;-1.16;48.67;99877.00;4922248;28;97724;-76
2022/03/31 04:16:28;;;;;;;1999.90;999.90;;;;;;;-1.15;48.67;99877.91;4919813;28;97625;-76
2022/03/31 04:18:56;;;;;;;1999.90;999.90;;;;;;;-1.18;49.04;99880.38;4920269;28;98299;-76
2022/03/31 04:21:23;;;;;;;1999.90;999.90;;;;;;;-1.20;48.53;99880.28;4917875;28;99593;-76
2022/03/31 04:23:51;;;;;;;1999.90;999.90;;;;;;;-0.72;47.40;99878.44;4915969;28;97118;-76
2022/03/31 04:26:19;;;;;;;1999.90;999.90;;;;;;;-0.47;46.69;99873.63;4916613;28;98026;-78
2022/03/31 04:28:47;;;;;;;1999.90;999.90;;;;;;;-0.30;46.27;99881.47;4914863;28;99018;-77
2022/03/31 04:31:16;;;;;;;1999.90;999.90;;;;;;;-0.20;46.23;99868.06;4916130;28;99171;-76
2022/03/31 04:33:43;;;;;;;1999.90;999.90;;;;;;;-0.15;45.96;99868.28;4917506;28;98798;-77
2022/03/31 04:36:11;;;;;;;1999.90;999.90;;;;;;;-0.62;47.24;99870.25;4914664;28;96889;-76
2022/03/31 04:38:39;;;;;;;1999.90;999.90;;;;;;;-0.84;48.13;99882.22;4916232;28;99583;-77
2022/03/31 04:41:06;;;;;;;1999.90;999.90;;;;;;;-0.97;47.68;99881.47;4915650;28;97948;-75
2022/03/31 04:43:34;;;;;;;1999.90;999.90;;;;;;;-0.50;46.81;99873.50;4914175;28;99077;-77
2022/03/31 04:46:02;;;;;;;1999.90;999.90;;;;;;;-0.84;47.33;99879.59;4913905;28;97774;-77
2022/03/31 04:48:33;;;;;;;1999.90;999.90;;;;;;;-0.96;47.32;99880.69;4914071;28;97693;-77
2022/03/31 04:51:00;;;;;;;1999.90;999.90;;;;;;;-0.51;46.69;99879.53;4909500;28;97897;-77
2022/03/31 04:53:28;;;;;;;1999.90;999.90;;;;;;;-0.33;45.86;99873.50;4913502;28;97335;-77
2022/03/31 04:55:56;;;;;;;1999.90;999.90;;;;;;;-0.77;47.06;99880.81;4917685;28;97275;-75
2022/03/31 04:58:24;;;;;;;1999.90;999.90;;;;;;;-0.38;46.34;99876.69;4913593;28;98190;-75
2022/03/31 05:00:52;;;;;;;1999.90;999.90;;;;;;;-0.21;45.82;99863.63;4914403;28;98862;-75
2022/03/31 05:03:21;;;;;;;1999.90;999.90;;;;;;;-0.67;46.51;99875.25;4919991;28;97699;-76
2022/03/31 05:05:50;;;;;;;1999.90;999.90;;;;;;;-0.30;45.52;99876.25;4927571;28;97626;-77
2022/03/31 05:08:18;;;;;;;1999.90;999.90;;;;;;;-0.73;46.80;99885.38;4930053;28;98856;-77
2022/03/31 05:10:46;;;;;;;1999.90;999.90;;;;;;;-0.91;47.26;99892.25;4930353;28;97804;-78
2022/03/31 05:13:14;;;;;;;1999.90;999.90;;;;;;;-1.00;47.29;99891.78;4928260;28;96895;-76
2022/03/31 05:15:42;;;;;;;1999.90;999.90;;;;;;;-1.07;47.19;99890.53;4931150;28;97356;-76
2022/03/31 05:18:09;;;;;;;1999.90;999.90;;;;;;;-1.14;47.23;99893.66;4912359;28;100432;-77
2022/03/31 05:20:38;;;;;;;1999.90;999.90;;;;;;;-0.69;46.38;99887.34;4926641;28;98013;-78
2022/03/31 05:23:07;;;;;;;1999.90;999.90;;;;;;;-0.51;45.58;99880.44;4925726;28;98123;-75
2022/03/31 05:25:34;;;;;;;1999.90;999.90;;;;;;;-0.39;45.49;99885.38;4922346;28;97876;-76
2022/03/31 05:28:04;;;;;;;1999.90;999.90;;;;;;;-0.31;45.10;99884.94;4923365;28;98052;-76
2022/03/31 05:30:32;;;;;;;1999.90;999.90;;;;;;;-0.27;44.52;99883.38;4924651;28;99633;-75
2022/03/31 05:33:00;;;;;;;1999.90;999.90;;;;;;;-0.22;44.45;99882.78;4927829;28;97526;-78
2022/03/31 05:35:28;;;;;;;1999.90;999.90;;;;;;;-0.71;46.13;99881.13;4920119;28;97113;-75
2022/03/31 05:37:56;;;;;;;1999.90;999.90;;;;;;;-0.93;46.51;99875.59;4920127;28;98774;-73
2022/03/31 05:40:25;;;;;;;1999.90;999.90;;;;;;;-1.09;46.96;99880.84;4918973;28;97733;-76
2022/03/31 05:42:55;;;;;;;1999.90;999.90;;;;;;;-1.20;47.11;99884.59;4922907;28;96692;-77
2022/03/31 05:45:25;;;;;;;1999.90;999.90;;;;;;;-1.34;47.26;99881.25;4921234;28;96868;-76
2022/03/31 05:47:53;;;;;;;1999.90;999.90;;;;;;;-1.44;46.70;99883.28;4922465;28;98113;-81
2022/03/31 05:50:21;;;;;;;1999.90;999.90;;;;;;;-1.52;46.84;99895.03;4923264;28;99652;-75
2022/03/31 05:52:49;;;;;;;1999.90;999.90;;;;;;;-1.59;47.13;99888.56;4920743;28;97452;-76
2022/03/31 05:55:18;;;;;;;1999.90;999.90;;;;;;;-1.62;47.43;99897.94;4930252;28;96957;-75
2022/03/31 05:57:48;;;;;;;1999.90;999.90;;;;;;;-1.13;46.46;99886.72;4902876;28;98243;-77
2022/03/31 06:00:17;;;;;;;1999.90;999.90;;;;;;;-1.41;46.75;99891.25;4921053;28;98101;-76
2022/03/31 06:02:46;;;;;;;1999.90;999.90;;;;;;;-0.94;46.07;99892.09;4916956;28;98003;-77
2022/03/31 06:05:17;;;;;;;1999.90;999.90;;;;;;;-0.74;45.34;99896.66;4915594;28;97350;-78
2022/03/31 06:07:45;;;;;;;1999.90;999.90;;;;;;;-1.18;46.66;99899.53;4919660;28;99459;-77
2022/03/31 06:10:13;;;;;;;1999.90;999.90;;;;;;;-1.33;46.52;99896.09;4918101;28;97806;-78
2022/03/31 06:12:40;;;;;;;1999.90;999.90;;;;;;;-1.40;46.67;99891.38;4919601;28;97651;-77
2022/03/31 06:15:10;;;;;;;1999.90;999.90;;;;;;;-1.48;47.49;99895.25;4917405;28;97634;-77
2022/03/31 06:17:41;;;;;;;1999.90;999.90;;;;;;;-1.55;47.06;99894.84;4916688;28;97840;-76
2022/03/31 06:20:10;;;;;;;1999.90;999.90;;;;;;;-1.61;47.22;99895.41;4917937;28;98044;-76
2022/03/31 06:22:38;;;;;;;1999.90;999.90;;;;;;;-1.63;47.66;99901.38;4919397;28;97522;-77
2022/03/31 06:25:11;;;;;;;1999.90;999.90;;;;;;;-1.09;46.06;99910.47;4916160;28;98115;-79
2022/03/31 06:27:40;;;;;;;1999.90;999.90;;;;;;;-1.42;46.45;99911.25;4921035;28;99028;-78
2022/03/31 06:30:08;;;;;;;1999.90;999.90;;;;;;;-1.51;47.24;99902.94;4920212;28;98650;-77
2022/03/31 06:32:38;;;;;;;1999.90;999.90;;;;;;;-1.53;47.08;99911.47;4920802;28;96860;-77
2022/03/31 06:35:11;;;;;;;1999.90;999.90;;;;;;;-1.58;47.26;99905.13;4918241;28;97381;-74
2022/03/31 06:37:39;;;;;;;1999.90;999.90;;;;;;;-1.63;47.30;99911.81;4917952;28;98740;-75
2022/03/31 06:40:10;;;;;;;1999.90;999.90;;;;;;;-1.66;46.95;99909.00;4920240;28;97594;-77
2022/03/31 06:42:37;;;;;;;1999.90;999.90;;;;;;;-1.69;47.39;99911.44;4917701;28;97135;-76
2022/03/31 06:45:08;;;;;;;1999.90;999.90;;;;;;;-1.66;47.65;99909.91;4921390;28;98759;-75
2022/03/31 06:47:57;;;;;;;1999.90;999.90;;;;;;;-1.63;47.37;99911.81;4919210;28;99037;-76
2022/03/31 06:50:29;;;;;;;1999.90;999.90;;;;;;;-1.57;47.15;99910.41;4919775;28;97618;-77
2022/03/31 06:52:58;;;;;;;1999.90;999.90;;;;;;;-1.56;47.42;99914.81;4926678;28;97372;-78
2022/03/31 06:55:32;;;;;;;1999.90;999.90;;;;;;;-1.51;46.83;99913.38;4916431;28;97172;-76
2022/03/31 06:57:59;;;;;;;1999.90;999.90;;;;;;;-1.47;46.84;99919.66;4918139;28;100796;-77
2022/03/31 07:00:29;;;;;;;1999.90;999.90;;;;;;;-1.46;46.95;99921.44;4919043;28;99247;-77
2022/03/31 07:03:00;;;;;;;1999.90;999.90;;;;;;;-0.99;45.47;99919.66;4917920;28;97152;-78
2022/03/31 07:05:29;;;;;;;1999.90;999.90;;;;;;;-0.71;44.97;99911.56;4921757;28;97321;-76
2022/03/31 07:07:57;;;;;;;1999.90;999.90;;;;;;;-1.09;45.41;99910.47;4922935;28;99275;-77
2022/03/31 07:10:24;;;;;;;1999.90;999.90;;;;;;;-1.17;46.39;99914.38;4921075;28;97558;-78
2022/03/31 07:12:52;;;;;;;1999.90;999.90;;;;;;;-1.22;46.41;99914.94;4923809;28;97018;-76
2022/03/31 07:15:20;;;;;;;1999.90;999.90;;;;;;;-1.27;46.21;99913.81;4922919;28;97531;-77
2022/03/31 07:17:47;;;;;;;1999.90;999.90;;;;;;;-0.79;45.31;99907.69;4918809;28;97556;-76
2022/03/31 07:20:16;;;;;;;1999.90;999.90;;;;;;;-1.07;45.66;99908.81;4920268;28;100752;-76
2022/03/31 07:22:45;;;;;;;1999.90;999.90;;;;;;;-1.10;45.74;99915.59;4918542;28;97522;-77
2022/03/31 07:25:13;;;;;;;1999.90;999.90;;;;;;;-1.10;46.10;99902.53;4919300;28;98751;-77
2022/03/31 07:27:42;;;;;;;1999.90;999.90;;;;;;;-1.10;45.89;99908.66;4921971;28;97644;-77
2022/03/31 07:30:12;;;;;;;1999.90;999.90;;;;;;;-1.07;45.90;99910.53;4918535;28;98418;-77
2022/03/31 07:32:47;;;;;;;1999.90;999.90;;;;;;;-1.08;45.67;99911.34;4917441;28;96841;-77
2022/03/31 07:35:15;;;;;;;1999.90;999.90;;;;;;;-1.08;46.19;99906.13;4920465;28;97225;-75
2022/03/31 07:37:44;;;;;;;1999.90;999.90;;;;;;;-1.08;46.21;99909.63;4920285;28;98550;-77
2022/03/31 07:40:12;;;;;;;1999.90;999.90;;;;;;;-1.08;45.85;99898.28;4917224;28;98044;-77
2022/03/31 07:42:41;;;;;;;1999.90;999.90;;;;;;;-1.05;45.97;99907.19;4921849;28;97175;-77
2022/03/31 07:45:09;;;;;;;1999.90;999.90;;;;;;;-1.02;45.70;99904.75;4923980;28;97923;-74
2022/03/31 07:47:37;;;;;;;1999.90;999.90;;;;;;;-1.01;45.70;99905.63;4927110;28;99022;-77
2022/03/31 07:50:06;;;;;;;1999.90;999.90;;;;;;;-0.97;45.78;99899.75;4936152;28;99026;-80
2022/03/31 07:52:34;;;;;;;1999.90;999.90;;;;;;;-0.91;45.86;99905.31;4949161;28;96558;-77
2022/03/31 07:55:09;;;;;;;1999.90;999.90;;;;;;;-0.83;45.83;99902.28;4945979;28;96832;-79
2022/03/31 07:57:38;;;;;;;1999.90;999.90;;;;;;;-0.74;45.65;99909.72;4941542;28;99659;-79
2022/03/31 08:00:07;;;;;;;1999.90;999.90;;;;;;;-0.71;45.05;99907.25;4943606;28;97703;-77
2022/03/31 08:02:41;;;;;;;1999.90;999.90;;;;;;;-0.67;45.43;99901.38;4933676;28;97233;-77
2022/03/31 08:05:10;;;;;;;1999.90;999.90;;;;;;;-0.65;45.28;99899.72;4939134;28;97190;-78
2022/03/31 08:07:38;;;;;;;1999.90;999.90;;;;;;;-0.60;45.27;99903.47;4948835;28;98187;-75
2022/03/31 08:10:09;;;;;;;1999.90;999.90;;;;;;;-0.58;45.46;99899.22;4922615;28;97581;-76
2022/03/31 08:12:39;;;;;;;1999.90;999.90;;;;;;;-0.54;45.27;99901.19;4941548;28;96786;-76
2022/03/31 08:15:08;;;;;;;1999.90;999.90;;;;;;;-0.47;44.85;99899.75;4920600;28;97585;-76
2022/03/31 08:17:37;;;;;;;1999.90;999.90;;;;;;;-0.39;45.03;99903.69;4915642;28;99496;-78
2022/03/31 08:20:07;;;;;;;1999.90;999.90;;;;;;;0.01;43.85;99899.59;4916423;28;97663;-77
2022/03/31 08:22:35;;;;;;;1999.90;999.90;;;;;;;0.29;43.36;99893.97;4918035;28;98004;-78
2022/03/31 08:25:05;;;;;;;1999.90;999.90;;;;;;;0.53;42.76;99900.38;4920187;28;97445;-76
2022/03/31 08:27:35;;;;;;;1999.90;999.90;;;;;;;0.30;43.51;99895.78;4919314;28;100616;-78
2022/03/31 08:30:04;;;;;;;1999.90;999.90;;;;;;;0.27;44.18;99896.53;4917312;28;97833;-76
2022/03/31 08:32:34;;;;;;;1999.90;999.90;;;;;;;0.27;43.66;99895.63;4919778;28;97358;-77
2022/03/31 08:35:03;;;;;;;1999.90;999.90;;;;;;;0.64;42.62;99899.16;4916108;28;96978;-75
2022/03/31 08:37:35;;;;;;;1999.90;999.90;;;;;;;0.87;42.39;99894.16;4916010;28;97468;-78
2022/03/31 08:40:03;;;;;;;1999.90;999.90;;;;;;;0.61;43.03;99899.03;4919850;28;99571;-78
2022/03/31 08:42:31;;;;;;;1999.90;999.90;;;;;;;0.53;43.18;99898.66;4917532;28;97250;-78
2022/03/31 08:45:01;;;;;;;1999.90;999.90;;;;;;;0.48;42.91;99902.81;4920906;28;97218;-78
2022/03/31 08:47:29;;;;;;;1999.90;999.90;;;;;;;0.44;43.43;99897.34;4918295;28;98786;-75
2022/03/31 08:50:16;;;;;;;1999.90;999.90;;;;;;;0.42;43.69;99901.59;4913701;28;100934;-77
2022/03/31 08:52:44;;;;;;;1999.90;999.90;;;;;;;0.42;43.37;99898.97;4917080;28;97096;-77
2022/03/31 08:55:12;;;;;;;1999.90;999.90;;;;;;;0.42;43.39;99901.59;4918939;28;97338;-77
2022/03/31 08:57:44;;;;;;;1999.90;999.90;;;;;;;0.42;43.49;99894.66;4923795;28;99572;-76
2022/03/31 09:00:15;;;;;;;1999.90;999.90;;;;;;;0.46;43.30;99900.91;4926897;28;97615;-77
2022/03/31 09:02:54;;;;;;;1999.90;999.90;;;;;;;0.43;43.14;99888.56;4922827;28;96831;-76
2022/03/31 09:05:22;;;;;;;1999.90;999.90;;;;;;;0.46;43.13;99887.84;4919995;28;98335;-77
2022/03/31 09:07:57;;;;;;;1999.90;999.90;;;;;;;0.44;42.92;99895.63;4916411;28;97696;-77
2022/03/31 09:10:29;;;;;;;1999.90;999.90;;;;;;;0.47;43.21;99897.47;4914026;28;97556;-76
2022/03/31 09:12:59;;;;;;;1999.90;999.90;;;;;;;0.49;43.54;99893.19;4917397;28;97186;-78
2022/03/31 09:15:34;;;;;;;1999.90;999.90;;;;;;;0.53;43.10;99893.44;4916224;28;97987;-78
2022/03/31 09:18:02;;;;;;;1999.90;999.90;;;;;;;0.59;43.27;99891.13;4919433;28;97758;-79
2022/03/31 09:20:38;;;;;;;1999.90;999.90;;;;;;;0.64;43.17;99886.06;4916667;28;97325;-78
2022/03/31 09:23:06;;;;;;;1999.90;999.90;;;;;;;0.74;42.48;99891.78;4916920;28;97951;-79
2022/03/31 09:25:34;;;;;;;1999.90;999.90;;;;;;;0.80;42.88;99894.69;4917662;28;96977;-78
2022/03/31 09:28:12;;;;;;;1999.90;999.90;;;;;;;0.86;42.66;99891.47;4916616;28;97972;-77
2022/03/31 09:30:46;;;;;;;1999.90;999.90;;;;;;;0.94;42.42;99901.44;4913773;28;99179;-77
2022/03/31 09:33:29;;;;;;;1999.90;999.90;;;;;;;1.23;40.93;99894.91;4909602;28;97201;-78
2022/03/31 09:36:01;;;;;;;1999.90;999.90;;;;;;;1.15;41.67;99896.28;4916840;28;97464;-76
2022/03/31 09:38:29;;;;;;;1999.90;999.90;;;;;;;1.16;41.91;99900.69;4918569;28;97890;-78
2022/03/31 09:40:58;;;;;;;1999.90;999.90;;;;;;;1.18;42.00;99896.41;4911263;28;99369;-75
2022/03/31 09:43:25;;;;;;;1999.90;999.90;;;;;;;1.22;42.14;99898.34;4916966;28;98031;-76
2022/03/31 09:45:54;;;;;;;1999.90;999.90;;;;;;;1.26;41.54;99900.28;4917512;28;99296;-78
2022/03/31 09:48:25;;;;;;;1999.90;999.90;;;;;;;1.30;42.17;99894.34;4918724;28;99051;-76
2022/03/31 09:50:53;;;;;;;1999.90;999.90;;;;;;;1.31;41.72;99887.34;4919160;28;98688;-77
2022/03/31 09:53:22;;;;;;;1999.90;999.90;;;;;;;1.35;41.91;99895.44;4922774;28;96965;-76
2022/03/31 09:55:51;;;;;;;1999.90;999.90;;;;;;;1.39;42.32;99899.06;4921594;28;97407;-75
2022/03/31 09:58:20;;;;;;;1999.90;999.90;;;;;;;1.72;40.39;99892.66;4919369;28;100767;-76
2022/03/31 10:00:48;;;;;;;1999.90;999.90;;;;;;;1.89;40.12;99882.03;4920293;28;98035;-76
2022/03/31 10:03:18;;;;;;;1999.90;999.90;;;;;;;1.68;40.04;99881.16;4919591;28;97459;-77
2022/03/31 10:05:46;;;;;;;1999.90;999.90;;;;;;;1.64;40.67;99881.84;4918201;28;97859;-78
2022/03/31 10:08:15;;;;;;;1999.90;999.90;;;;;;;1.63;40.46;99872.19;4928510;28;100705;-78
2022/03/31 10:10:43;;;;;;;1999.90;999.90;;;;;;;1.64;40.37;99868.72;4917741;28;98207;-76
2022/03/31 10:13:16;;;;;;;1999.90;999.90;;;;;;;1.63;41.21;99872.19;4919672;28;97470;-79
2022/03/31 10:15:44;;;;;;;1999.90;999.90;;;;;;;1.61;41.21;99871.25;4916374;28;97757;-71
2022/03/31 10:18:14;;;;;;;1999.90;999.90;;;;;;;1.62;41.14;99875.63;4921332;28;97409;-71
2022/03/31 10:20:56;;;;;;;1999.90;999.90;;;;;;;1.64;41.06;99873.97;4918603;28;98996;-71
2022/03/31 10:26:21;;;;;;;1999.90;999.90;;;;;;;1.71;40.96;99877.75;4921357;28;97607;-74
2022/03/31 10:28:54;;;;;;;1999.90;999.90;;;;;;;1.75;40.51;99869.19;4922108;28;97584;-75
2022/03/31 10:31:22;;;;;;;1999.90;999.90;;;;;;;1.78;40.94;99867.56;4935803;28;98521;-75
2022/03/31 10:33:52;;;;;;;1999.90;999.90;;;;;;;1.82;40.99;99864.25;4920254;28;96794;-77
2022/03/31 10:36:23;;;;;;;1999.90;999.90;;;;;;;1.83;41.03;99859.91;4923013;28;97716;-76
2022/03/31 10:38:53;;;;;;;1999.90;999.90;;;;;;;1.80;40.84;99868.53;4923162;28;98751;-80
2022/03/31 10:41:29;;;;;;;1999.90;999.90;;;;;;;1.74;40.73;99860.44;4926099;28;98047;-77
2022/03/31 10:43:58;;;;;;;1999.90;999.90;;;;;;;1.75;40.97;99861.31;4924964;28;96797;-76
2022/03/31 10:46:28;;;;;;;1999.90;999.90;;;;;;;1.72;40.89;99854.22;4925091;28;97064;-78
2022/03/31 10:48:58;;;;;;;1999.90;999.90;;;;;;;1.66;40.45;99853.97;4923164;28;97744;-77
2022/03/31 10:51:33;;;;;;;1999.90;999.90;;;;;;;1.62;41.16;99851.13;4924228;28;99301;-77
2022/03/31 10:54:02;;;;;;;1999.90;999.90;;;;;;;1.62;41.37;99849.41;4906627;28;97106;-76
2022/03/31 10:56:31;;;;;;;1999.90;999.90;;;;;;;1.60;40.47;99851.06;4924834;28;97673;-75
2022/03/31 10:59:01;;;;;;;1999.90;999.90;;;;;;;1.60;40.69;99855.44;4918709;28;99802;-78
2022/03/31 11:01:30;;;;;;;1999.90;999.90;;;;;;;1.60;40.77;99851.06;4919551;28;98787;-78
2022/03/31 11:04:03;;;;;;;1999.90;999.90;;;;;;;1.89;39.96;99850.56;4917764;28;97007;-77
2022/03/31 11:06:33;;;;;;;1999.90;999.90;;;;;;;1.75;39.94;99843.84;4920968;28;97535;-76
2022/03/31 11:09:00;;;;;;;1999.90;999.90;;;;;;;1.75;39.80;99841.22;4925465;28;98016;-76
2022/03/31 11:11:36;;;;;;;1999.90;999.90;;;;;;;1.75;40.28;99835.09;4923734;28;99303;-80